createdAt,value
2022-11-13T00:02:06.020Z,11.10
2022-11-13T00:04:51.948Z,10.90
2022-11-13T00:07:37.723Z,10.80
2022-11-13T00:10:23.727Z,10.90
2022-11-13T00:13:12.904Z,11.00
2022-11-13T00:16:00.872Z,11.10
2022-11-13T00:18:47.753Z,10.90
2022-11-13T00:21:33.674Z,10.90
2022-11-13T00:24:19.552Z,10.80
2022-11-13T00:27:05.243Z,10.70
2022-11-13T00:29:50.821Z,10.60
2022-11-13T00:32:38.072Z,10.60
2022-11-13T00:35:24.014Z,10.60
2022-11-13T00:38:09.774Z,10.40
2022-11-13T00:40:55.413Z,10.20
2022-11-13T00:43:41.652Z,10.00
2022-11-13T00:46:27.387Z,9.50
2022-11-13T00:49:13.466Z,9.40
2022-11-13T00:52:00.861Z,9.60
2022-11-13T00:54:46.550Z,9.40
2022-11-13T00:57:32.658Z,9.40
2022-11-13T01:00:18.902Z,9.50
2022-11-13T01:03:05.221Z,9.50
2022-11-13T01:05:51.464Z,9.50
2022-11-13T01:08:37.605Z,9.40
2022-11-13T01:11:25.889Z,9.50
2022-11-13T01:14:11.984Z,9.40
2022-11-13T01:16:57.747Z,9.20
2022-11-13T01:19:43.410Z,9.20
2022-11-13T01:22:29.087Z,9.20
2022-11-13T01:25:14.847Z,9.00
2022-11-13T01:28:01.004Z,8.90
2022-11-13T01:30:48.571Z,8.60
2022-11-13T01:33:35.135Z,8.70
2022-11-13T01:36:27.228Z,8.90
2022-11-13T01:39:13.308Z,8.80
2022-11-13T01:41:59.164Z,8.40
2022-11-13T01:44:49.650Z,8.60
2022-11-13T01:47:36.298Z,8.70
2022-11-13T01:50:22.228Z,8.90
2022-11-13T01:53:09.174Z,8.80
2022-11-13T01:55:55.383Z,8.50
2022-11-13T01:58:44.426Z,8.60
2022-11-13T02:01:31.135Z,8.60
2022-11-13T02:04:16.814Z,8.80
2022-11-13T02:07:23.509Z,9.00
2022-11-13T02:10:09.732Z,9.20
2022-11-13T02:12:55.321Z,9.20
2022-11-13T02:15:43.618Z,9.00
2022-11-13T02:18:32.569Z,8.80
2022-11-13T02:21:24.519Z,9.00
2022-11-13T02:24:20.896Z,9.20
2022-11-13T02:27:10.983Z,9.20
2022-11-13T02:29:56.736Z,9.00
2022-11-13T02:32:47.290Z,8.90
2022-11-13T02:35:37.831Z,8.90
2022-11-13T02:38:23.794Z,8.60
2022-11-13T02:41:09.356Z,8.50
2022-11-13T02:43:55.071Z,8.50
2022-11-13T02:46:41.065Z,8.60
2022-11-13T02:49:27.022Z,8.60
2022-11-13T02:52:12.865Z,8.50
2022-11-13T02:54:58.954Z,8.50
2022-11-13T02:57:44.591Z,8.00
2022-11-13T03:00:32.481Z,7.80
2022-11-13T03:03:34.275Z,8.00
2022-11-13T03:06:24.310Z,8.10
2022-11-13T03:09:10.311Z,8.20
2022-11-13T03:11:55.933Z,8.20
2022-11-13T03:14:41.669Z,8.00
2022-11-13T03:17:27.645Z,8.10
2022-11-13T03:20:13.355Z,7.50
2022-11-13T03:22:58.952Z,7.00
2022-11-13T03:25:44.552Z,7.00
2022-11-13T03:28:30.423Z,7.20
2022-11-13T03:31:16.847Z,7.20
2022-11-13T03:34:03.344Z,7.50
2022-11-13T03:36:49.264Z,7.60
2022-11-13T03:39:35.062Z,7.80
2022-11-13T03:42:20.779Z,7.60
2022-11-13T03:45:06.799Z,7.20
2022-11-13T03:47:52.640Z,7.20
2022-11-13T03:50:42.806Z,7.20
2022-11-13T03:53:31.441Z,7.40
2022-11-13T03:56:17.439Z,7.50
2022-11-13T03:59:03.285Z,7.60
2022-11-13T04:01:49.462Z,7.80
2022-11-13T04:04:35.413Z,8.00
2022-11-13T04:07:21.235Z,8.00
2022-11-13T04:10:07.484Z,7.60
2022-11-13T04:13:02.531Z,7.60
2022-11-13T04:15:49.538Z,7.70
2022-11-13T04:18:35.469Z,7.20
2022-11-13T04:21:21.571Z,7.40
2022-11-13T04:24:07.710Z,7.50
2022-11-13T04:26:53.819Z,7.80
2022-11-13T04:29:39.557Z,7.90
2022-11-13T04:32:25.392Z,7.80
2022-11-13T04:35:12.329Z,7.40
2022-11-13T04:37:58.427Z,7.00
2022-11-13T04:40:44.207Z,7.20
2022-11-13T04:43:30.102Z,7.40
2022-11-13T04:46:15.791Z,7.40
2022-11-13T04:49:01.519Z,7.40
2022-11-13T04:51:47.237Z,7.30
2022-11-13T04:54:32.966Z,7.10
2022-11-13T04:57:18.700Z,6.80
2022-11-13T05:00:05.909Z,6.90
2022-11-13T05:02:51.822Z,6.70
2022-11-13T05:05:37.787Z,6.40
2022-11-13T05:08:24.116Z,6.50
2022-11-13T05:11:09.946Z,6.60
2022-11-13T05:14:00.659Z,6.80
2022-11-13T05:16:50.545Z,7.00
2022-11-13T05:19:36.869Z,6.80
2022-11-13T05:22:23.359Z,6.90
2022-11-13T05:25:09.307Z,7.10
2022-11-13T05:27:58.282Z,7.20
2022-11-13T05:30:46.315Z,7.10
2022-11-13T05:33:32.312Z,7.10
2022-11-13T05:36:20.097Z,7.20
2022-11-13T05:39:06.501Z,7.40
2022-11-13T05:41:53.420Z,7.20
2022-11-13T05:44:39.468Z,7.20
2022-11-13T05:47:25.491Z,7.20
2022-11-13T05:50:11.245Z,7.50
2022-11-13T05:52:57.597Z,7.60
2022-11-13T05:55:43.241Z,7.60
2022-11-13T05:58:30.096Z,7.50
2022-11-13T06:01:18.704Z,7.10
2022-11-13T06:04:05.980Z,7.20
2022-11-13T06:06:53.324Z,7.30
2022-11-13T06:09:40.103Z,7.50
2022-11-13T06:12:26.186Z,7.50
2022-11-13T06:15:12.196Z,7.40
2022-11-13T06:17:58.671Z,7.20
2022-11-13T06:20:44.485Z,7.20
2022-11-13T06:23:30.294Z,7.40
2022-11-13T06:26:21.349Z,7.50
2022-11-13T06:29:08.640Z,7.60
2022-11-13T06:31:54.985Z,7.80
2022-11-13T06:34:41.459Z,7.80
2022-11-13T06:37:29.628Z,7.90
2022-11-13T06:40:18.067Z,8.00
2022-11-13T06:43:04.569Z,8.10
2022-11-13T06:45:50.320Z,8.20
2022-11-13T06:48:48.013Z,8.10
2022-11-13T06:51:37.080Z,8.10
2022-11-13T06:54:24.764Z,8.10
2022-11-13T06:57:10.586Z,8.10
2022-11-13T06:59:57.254Z,8.00
2022-11-13T07:02:44.105Z,7.50
2022-11-13T07:05:30.263Z,7.50
2022-11-13T07:08:16.526Z,7.80
2022-11-13T07:11:03.010Z,8.00
2022-11-13T07:13:49.086Z,8.30
2022-11-13T07:16:56.643Z,8.40
2022-11-13T07:19:41.061Z,8.60
2022-11-13T07:22:29.750Z,8.70
2022-11-13T07:25:15.567Z,8.70
2022-11-13T07:28:01.809Z,8.90
2022-11-13T07:30:52.589Z,9.00
2022-11-13T07:33:38.334Z,8.90
2022-11-13T07:36:24.486Z,8.90
2022-11-13T07:39:10.203Z,8.90
2022-11-13T07:41:55.908Z,9.00
2022-11-13T07:44:54.031Z,8.90
2022-11-13T07:47:40.306Z,8.60
2022-11-13T07:50:31.659Z,8.80
2022-11-13T07:53:18.864Z,9.00
2022-11-13T07:56:05.755Z,9.20
2022-11-13T07:58:52.051Z,9.50
2022-11-13T08:01:38.615Z,9.50
2022-11-13T08:04:25.127Z,9.40
2022-11-13T08:07:12.976Z,9.60
2022-11-13T08:09:58.714Z,10.00
2022-11-13T08:12:45.639Z,10.10
2022-11-13T08:15:37.084Z,10.10
2022-11-13T08:18:23.606Z,10.10
2022-11-13T08:21:14.658Z,10.30
2022-11-13T08:24:01.014Z,10.90
2022-11-13T08:26:47.182Z,11.40
2022-11-13T08:29:32.954Z,11.50
2022-11-13T08:32:19.958Z,11.60
2022-11-13T08:35:07.294Z,11.70
2022-11-13T08:37:53.741Z,11.70
2022-11-13T08:40:39.349Z,11.70
2022-11-13T08:43:25.433Z,11.60
2022-11-13T08:46:11.503Z,11.50
2022-11-13T08:48:57.748Z,11.60
2022-11-13T08:51:43.473Z,11.70
2022-11-13T08:54:29.390Z,11.70
2022-11-13T08:57:16.015Z,11.70
2022-11-13T09:00:02.012Z,11.80
2022-11-13T09:02:47.850Z,11.90
2022-11-13T09:05:33.552Z,12.00
2022-11-13T09:08:19.209Z,12.10
2022-11-13T09:11:05.977Z,12.20
2022-11-13T09:13:53.679Z,12.20
2022-11-13T09:16:39.611Z,12.20
2022-11-13T09:19:25.919Z,12.30
2022-11-13T09:22:12.400Z,12.30
2022-11-13T09:24:58.157Z,12.50
2022-11-13T09:27:43.958Z,12.50
2022-11-13T09:30:34.076Z,12.60
2022-11-13T09:33:20.245Z,12.70
2022-11-13T09:36:15.739Z,12.80
2022-11-13T09:39:01.522Z,12.80
2022-11-13T09:42:10.530Z,12.80
2022-11-13T09:45:03.634Z,12.80
2022-11-13T09:47:52.958Z,12.90
2022-11-13T09:50:40.073Z,12.90
2022-11-13T09:53:27.536Z,12.90
2022-11-13T09:56:22.438Z,12.80
2022-11-13T09:59:34.602Z,12.80
2022-11-13T10:02:57.681Z,12.60
2022-11-13T10:05:58.288Z,12.50
2022-11-13T10:08:56.330Z,12.50
2022-11-13T10:11:55.299Z,12.50
2022-11-13T10:14:51.388Z,12.60
2022-11-13T10:17:53.019Z,12.70
2022-11-13T10:20:58.149Z,12.70
2022-11-13T10:23:50.326Z,12.80
2022-11-13T10:26:36.878Z,12.90
2022-11-13T10:29:23.862Z,13.00
2022-11-13T10:32:17.450Z,13.00
2022-11-13T10:35:06.315Z,13.10
2022-11-13T10:38:16.381Z,13.30
2022-11-13T10:41:20.135Z,13.50
2022-11-13T10:44:20.392Z,13.70
2022-11-13T10:47:42.565Z,13.90
2022-11-13T10:50:31.171Z,14.10
2022-11-13T10:53:18.929Z,14.20
2022-11-13T10:56:24.897Z,14.30
2022-11-13T10:59:13.483Z,14.40
2022-11-13T11:02:18.761Z,14.80
2022-11-13T11:05:16.470Z,15.30
2022-11-13T11:08:06.874Z,15.80
2022-11-13T11:11:25.839Z,16.00
2022-11-13T11:14:17.892Z,16.20
2022-11-13T11:17:05.838Z,16.10
2022-11-13T11:20:10.544Z,16.10
2022-11-13T11:23:02.499Z,15.80
2022-11-13T11:26:01.710Z,16.10
2022-11-13T11:29:00.494Z,16.40
2022-11-13T11:32:12.589Z,16.90
2022-11-13T11:35:19.668Z,16.90
2022-11-13T11:38:42.643Z,17.40
2022-11-13T11:41:38.494Z,17.20
2022-11-13T11:44:56.918Z,17.50
2022-11-13T11:47:43.225Z,17.80
2022-11-13T11:51:05.729Z,17.60
2022-11-13T11:54:12.747Z,17.50
2022-11-13T11:57:07.075Z,17.90
2022-11-13T12:00:10.083Z,17.80
2022-11-13T12:03:13.666Z,17.40
2022-11-13T12:06:32.752Z,17.40
2022-11-13T12:09:50.236Z,17.20
2022-11-13T12:12:45.034Z,17.40
2022-11-13T12:16:01.060Z,17.00
2022-11-13T12:18:56.513Z,16.20
2022-11-13T12:22:01.005Z,15.80
2022-11-13T12:25:05.195Z,15.50
2022-11-13T12:28:06.785Z,15.40
2022-11-13T12:30:57.126Z,15.50
2022-11-13T12:33:43.184Z,15.60
2022-11-13T12:36:29.746Z,15.50
2022-11-13T12:39:37.591Z,15.40
2022-11-13T12:42:39.604Z,15.50
2022-11-13T12:45:41.175Z,15.30
2022-11-13T12:48:34.167Z,15.30
2022-11-13T12:51:21.130Z,15.30
2022-11-13T12:54:10.287Z,15.40
2022-11-13T12:57:14.080Z,15.50
2022-11-13T13:00:22.079Z,15.70
2022-11-13T13:03:16.845Z,16.00
2022-11-13T13:06:20.399Z,16.00
2022-11-13T13:09:32.119Z,16.00
2022-11-13T13:12:27.302Z,16.00
2022-11-13T13:15:26.294Z,16.10
2022-11-13T13:18:18.159Z,16.00
2022-11-13T13:21:07.153Z,15.70
2022-11-13T13:23:53.616Z,15.80
2022-11-13T13:26:47.393Z,16.00
2022-11-13T13:29:34.576Z,16.10
2022-11-13T13:33:24.658Z,16.40
2022-11-13T13:36:33.384Z,16.70
2022-11-13T13:39:30.601Z,16.90
2022-11-13T13:42:37.985Z,17.00
2022-11-13T13:45:35.485Z,16.90
2022-11-13T13:48:25.960Z,16.90
2022-11-13T13:51:28.396Z,17.00
2022-11-13T13:54:20.041Z,16.70
2022-11-13T13:57:11.250Z,17.20
2022-11-13T13:59:57.762Z,17.80
2022-11-13T14:03:01.921Z,18.70
2022-11-13T14:05:47.738Z,19.10
2022-11-13T14:08:34.035Z,19.40
2022-11-13T14:11:27.330Z,20.10
2022-11-13T14:14:22.122Z,20.90
2022-11-13T14:17:11.066Z,21.80
2022-11-13T14:20:01.282Z,21.90
2022-11-13T14:22:55.053Z,22.10
2022-11-13T14:25:43.886Z,22.70
2022-11-13T14:28:32.737Z,23.10
2022-11-13T14:31:19.089Z,22.30
2022-11-13T14:34:16.377Z,21.90
2022-11-13T14:37:21.142Z,21.30
2022-11-13T14:40:24.973Z,22.50
2022-11-13T14:43:22.581Z,22.90
2022-11-13T14:46:44.624Z,22.20
2022-11-13T14:49:37.391Z,20.30
2022-11-13T14:52:28.327Z,17.80
2022-11-13T14:55:23.810Z,16.30
2022-11-13T14:58:15.035Z,15.80
2022-11-13T15:01:22.493Z,15.80
2022-11-13T15:04:08.364Z,15.90
2022-11-13T15:06:57.044Z,15.70
2022-11-13T15:09:43.081Z,15.50
2022-11-13T15:12:28.954Z,14.10
2022-11-13T15:15:20.521Z,13.10
2022-11-13T15:18:07.667Z,12.80
2022-11-13T15:20:54.178Z,12.50
2022-11-13T15:23:39.933Z,12.80
2022-11-13T15:26:25.766Z,12.90
2022-11-13T15:29:11.800Z,13.10
2022-11-13T15:31:58.258Z,12.90
2022-11-13T15:34:44.361Z,12.80
2022-11-13T15:37:30.028Z,12.50
2022-11-13T15:40:16.403Z,11.90
2022-11-13T15:43:03.107Z,11.50
2022-11-13T15:45:51.741Z,11.50
2022-11-13T15:48:37.531Z,11.70
2022-11-13T15:51:39.830Z,11.90
2022-11-13T15:54:32.486Z,11.90
2022-11-13T15:57:26.553Z,12.00
2022-11-13T16:00:17.475Z,12.10
2022-11-13T16:03:04.872Z,12.10
2022-11-13T16:05:51.367Z,12.20
2022-11-13T16:08:43.219Z,12.40
2022-11-13T16:11:40.577Z,12.50
2022-11-13T16:14:26.825Z,12.40
2022-11-13T16:17:16.762Z,12.30
2022-11-13T16:20:05.869Z,12.30
2022-11-13T16:22:51.776Z,12.10
2022-11-13T16:25:37.750Z,11.70
2022-11-13T16:28:23.799Z,11.20
2022-11-13T16:31:09.699Z,11.10
2022-11-13T16:33:55.224Z,11.40
2022-11-13T16:36:41.851Z,11.50
2022-11-13T16:39:27.598Z,11.50
2022-11-13T16:42:16.162Z,11.50
2022-11-13T16:45:01.988Z,11.50
2022-11-13T16:47:48.414Z,11.30
2022-11-13T16:50:37.371Z,11.30
2022-11-13T16:53:23.705Z,11.10
2022-11-13T16:56:13.617Z,11.00
2022-11-13T16:59:00.081Z,10.90
2022-11-13T17:01:45.825Z,10.50
2022-11-13T17:04:31.638Z,10.40
2022-11-13T17:07:17.350Z,10.60
2022-11-13T17:13:09.929Z,11.00
2022-11-13T17:15:55.842Z,11.30
2022-11-13T17:18:41.800Z,11.30
2022-11-13T17:21:29.814Z,11.30
2022-11-13T17:24:15.759Z,11.10
2022-11-13T17:27:01.904Z,11.00
2022-11-13T17:29:47.876Z,11.10
2022-11-13T17:32:33.889Z,10.80
2022-11-13T17:35:19.777Z,10.60
2022-11-13T17:38:06.387Z,10.50
2022-11-13T17:40:53.352Z,10.50
2022-11-13T17:43:40.924Z,10.60
2022-11-13T17:46:26.988Z,10.60
2022-11-13T17:49:12.471Z,10.70
2022-11-13T17:51:58.518Z,10.60
2022-11-13T17:54:44.213Z,10.30
2022-11-13T17:57:33.645Z,10.40
2022-11-13T18:00:20.127Z,10.50
2022-11-13T18:03:06.460Z,10.60
2022-11-13T18:05:52.186Z,10.40
2022-11-13T18:08:42.673Z,10.40
2022-11-13T18:11:29.590Z,10.40
2022-11-13T18:14:15.308Z,10.50
2022-11-13T18:17:01.596Z,10.70
2022-11-13T18:19:47.274Z,10.80
2022-11-13T18:22:33.015Z,10.80
2022-11-13T18:25:18.929Z,10.70
2022-11-13T18:28:05.030Z,10.40
2022-11-13T18:30:56.454Z,10.30
2022-11-13T18:33:44.825Z,10.40
2022-11-13T18:36:35.165Z,10.40
2022-11-13T18:39:22.533Z,10.50
2022-11-13T18:42:08.435Z,10.60
2022-11-13T18:44:54.505Z,10.70
2022-11-13T18:47:40.324Z,10.40
2022-11-13T18:50:27.893Z,10.20
2022-11-13T18:53:13.590Z,10.30
2022-11-13T18:56:04.419Z,10.40
2022-11-13T18:58:51.667Z,10.60
2022-11-13T19:01:40.098Z,10.60
2022-11-13T19:04:26.085Z,10.70
2022-11-13T19:07:12.828Z,10.70
2022-11-13T19:09:58.730Z,10.70
2022-11-13T19:12:44.710Z,10.60
2022-11-13T19:15:36.976Z,10.60
2022-11-13T19:18:23.466Z,10.60
2022-11-13T19:21:14.447Z,10.80
2022-11-13T19:24:02.723Z,10.90
2022-11-13T19:26:48.850Z,10.90
2022-11-13T19:29:35.046Z,10.90
2022-11-13T19:32:20.822Z,10.90
2022-11-13T19:35:07.445Z,10.80
2022-11-13T19:37:58.020Z,10.80
2022-11-13T19:40:48.472Z,10.90
2022-11-13T19:43:39.644Z,10.90
2022-11-13T19:46:25.811Z,10.80
2022-11-13T19:49:12.045Z,10.60
2022-11-13T19:51:57.816Z,10.60
2022-11-13T19:54:43.611Z,10.50
2022-11-13T19:57:29.389Z,10.50
2022-11-13T20:00:15.622Z,10.40
2022-11-13T20:03:06.452Z,10.10
2022-11-13T20:05:55.083Z,9.80
2022-11-13T20:08:42.195Z,9.80
2022-11-13T20:11:28.188Z,10.00
2022-11-13T20:14:17.294Z,10.20
2022-11-13T20:17:03.723Z,10.30
2022-11-13T20:19:50.101Z,10.30
2022-11-13T20:22:36.944Z,10.10
2022-11-13T20:25:22.910Z,10.10
2022-11-13T20:28:08.919Z,10.40
2022-11-13T20:31:12.752Z,10.60
2022-11-13T20:33:58.770Z,10.40
2022-11-13T20:36:45.115Z,10.50
2022-11-13T20:39:30.901Z,10.60
2022-11-13T20:42:16.808Z,10.70
2022-11-13T20:45:02.412Z,10.60
2022-11-13T20:47:48.044Z,10.60
2022-11-13T20:50:38.180Z,10.60
2022-11-13T20:53:23.848Z,10.70
2022-11-13T20:56:10.533Z,10.80
2022-11-13T20:58:56.661Z,10.70
2022-11-13T21:01:42.694Z,10.80
2022-11-13T21:04:28.688Z,10.80
2022-11-13T21:07:14.506Z,10.80
2022-11-13T21:10:02.203Z,10.80
2022-11-13T21:12:48.022Z,10.90
2022-11-13T21:15:41.957Z,10.80
2022-11-13T21:18:30.143Z,10.70
2022-11-13T21:21:20.502Z,10.80
2022-11-13T21:24:08.041Z,10.80
2022-11-13T21:26:54.218Z,10.80
2022-11-13T21:29:39.978Z,10.70
2022-11-13T21:32:25.624Z,10.70
2022-11-13T21:35:12.215Z,10.60
2022-11-13T21:37:58.538Z,10.60
2022-11-13T21:41:04.347Z,10.40
2022-11-13T21:43:58.793Z,10.50
2022-11-13T21:46:45.857Z,10.60
2022-11-13T21:49:32.050Z,10.60
2022-11-13T21:52:17.986Z,10.60
2022-11-13T21:55:04.150Z,10.70
2022-11-13T21:57:50.201Z,10.50
2022-11-13T22:00:36.130Z,10.30
2022-11-13T22:03:22.376Z,10.40
2022-11-13T22:06:20.393Z,10.40
2022-11-13T22:09:18.198Z,10.50
2022-11-13T22:12:05.368Z,10.50
2022-11-13T22:14:51.993Z,10.60
2022-11-13T22:17:40.767Z,10.50
2022-11-13T22:20:27.908Z,10.60
2022-11-13T22:23:14.676Z,10.60
2022-11-13T22:26:09.390Z,10.60
2022-11-13T22:28:56.565Z,10.50
2022-11-13T22:31:45.068Z,10.40
2022-11-13T22:34:31.029Z,10.20
2022-11-13T22:37:16.582Z,10.20
2022-11-13T22:40:03.247Z,10.20
2022-11-13T22:42:49.436Z,10.30
2022-11-13T22:45:39.892Z,10.40
2022-11-13T22:48:25.369Z,10.50
2022-11-13T22:51:17.356Z,10.60
2022-11-13T22:54:08.905Z,10.50
2022-11-13T22:56:54.593Z,10.50
2022-11-13T22:59:40.254Z,10.40
2022-11-13T23:02:25.937Z,10.30
2022-11-13T23:05:12.063Z,10.20
2022-11-13T23:07:58.649Z,10.10
2022-11-13T23:10:44.501Z,10.00
2022-11-13T23:13:30.149Z,10.00
2022-11-13T23:16:16.920Z,10.10
2022-11-13T23:19:03.539Z,10.20
2022-11-13T23:21:49.565Z,10.30
2022-11-13T23:24:35.544Z,10.30
2022-11-13T23:27:21.481Z,10.20
2022-11-13T23:30:09.274Z,10.00
2022-11-13T23:32:55.027Z,9.90
2022-11-13T23:35:41.999Z,10.00
2022-11-13T23:38:28.252Z,10.00
2022-11-13T23:41:28.959Z,10.20
2022-11-13T23:44:14.766Z,10.30
2022-11-13T23:47:00.588Z,10.20
2022-11-13T23:49:46.389Z,10.10
2022-11-13T23:52:32.318Z,10.20
2022-11-13T23:55:18.489Z,10.10
2022-11-13T23:58:05.979Z,10.00
